Moss, Tennessee
Current Conditions -  °F | °C
As of 12:35 PM on Thursday 27 Nov 2014 (Local Time) from KGLW Reporting Station
Overcast Overcast  
Wind Chill: 24°   Ceiling: 1600
Heat Index: 31°   Visibility: 10mi
Dew Point: 25°   Wind: 8mph
Humidity: 78%   Direction: 300°WNW
Pressure: 30.39"   Gusts: 16mph
Location:  36.59°N, 85.62°W
Report Text: KGLW 271835Z AUTO 30007G14KT 10SM BKN016 OVC022 00/M04 A3039 RMK AO2 T10051039
Loading
Personal Weather Stations






























Interactive Weather Map New forecast layout! Learn more

10-Day Weather Forecast

Advertisements
Track Severe Weather on mobile